sensor_id;sensor_type;location;lat;lon;timestamp;P1;durP1;ratioP1;P2;durP2;ratioP2
32485;SDS011;18935;52.236;21.134;2022-08-03T00:00:05;12.13;;;8.73;;
32485;SDS011;18935;52.236;21.134;2022-08-03T00:02:32;13.80;;;8.88;;
32485;SDS011;18935;52.236;21.134;2022-08-03T00:04:57;15.18;;;9.02;;
32485;SDS011;18935;52.236;21.134;2022-08-03T00:07:23;13.10;;;9.15;;
32485;SDS011;18935;52.236;21.134;2022-08-03T00:09:48;12.18;;;8.68;;
32485;SDS011;18935;52.236;21.134;2022-08-03T00:12:14;11.30;;;8.77;;
32485;SDS011;18935;52.236;21.134;2022-08-03T00:14:40;11.40;;;8.98;;
32485;SDS011;18935;52.236;21.134;2022-08-03T00:17:05;12.05;;;9.38;;
32485;SDS011;18935;52.236;21.134;2022-08-03T00:19:32;13.32;;;8.98;;
32485;SDS011;18935;52.236;21.134;2022-08-03T00:21:58;11.95;;;8.70;;
32485;SDS011;18935;52.236;21.134;2022-08-03T00:24:23;10.88;;;9.05;;
32485;SDS011;18935;52.236;21.134;2022-08-03T00:26:49;12.30;;;9.17;;
32485;SDS011;18935;52.236;21.134;2022-08-03T00:29:14;23.57;;;8.87;;
32485;SDS011;18935;52.236;21.134;2022-08-03T00:31:39;13.17;;;9.10;;
32485;SDS011;18935;52.236;21.134;2022-08-03T00:34:04;12.25;;;9.07;;
32485;SDS011;18935;52.236;21.134;2022-08-03T00:36:30;13.75;;;9.52;;
32485;SDS011;18935;52.236;21.134;2022-08-03T00:38:55;12.23;;;9.50;;
32485;SDS011;18935;52.236;21.134;2022-08-03T00:41:20;12.43;;;9.18;;
32485;SDS011;18935;52.236;21.134;2022-08-03T00:43:46;14.77;;;9.27;;
32485;SDS011;18935;52.236;21.134;2022-08-03T00:46:12;16.02;;;9.52;;
32485;SDS011;18935;52.236;21.134;2022-08-03T00:48:37;10.57;;;8.98;;
32485;SDS011;18935;52.236;21.134;2022-08-03T00:51:02;14.20;;;9.10;;
32485;SDS011;18935;52.236;21.134;2022-08-03T00:53:28;13.35;;;9.95;;
32485;SDS011;18935;52.236;21.134;2022-08-03T00:55:54;16.98;;;9.30;;
32485;SDS011;18935;52.236;21.134;2022-08-03T00:58:19;13.48;;;9.10;;
32485;SDS011;18935;52.236;21.134;2022-08-03T01:00:45;11.43;;;8.77;;
32485;SDS011;18935;52.236;21.134;2022-08-03T01:03:10;11.98;;;8.73;;
32485;SDS011;18935;52.236;21.134;2022-08-03T01:05:43;13.50;;;8.25;;
32485;SDS011;18935;52.236;21.134;2022-08-03T01:11:26;10.70;;;9.35;;
32485;SDS011;18935;52.236;21.134;2022-08-03T01:17:28;14.98;;;9.23;;
32485;SDS011;18935;52.236;21.134;2022-08-03T01:19:59;11.35;;;9.35;;
32485;SDS011;18935;52.236;21.134;2022-08-03T01:25:34;23.98;;;10.32;;
32485;SDS011;18935;52.236;21.134;2022-08-03T01:28:28;18.05;;;9.52;;
32485;SDS011;18935;52.236;21.134;2022-08-03T01:31:04;16.70;;;10.02;;
32485;SDS011;18935;52.236;21.134;2022-08-03T01:33:35;13.13;;;10.10;;
32485;SDS011;18935;52.236;21.134;2022-08-03T01:36:13;12.30;;;9.88;;
32485;SDS011;18935;52.236;21.134;2022-08-03T01:38:44;12.77;;;9.52;;
32485;SDS011;18935;52.236;21.134;2022-08-03T01:41:19;12.30;;;9.43;;
32485;SDS011;18935;52.236;21.134;2022-08-03T01:43:47;14.45;;;9.07;;
32485;SDS011;18935;52.236;21.134;2022-08-03T01:46:14;16.30;;;9.95;;
32485;SDS011;18935;52.236;21.134;2022-08-03T01:48:42;12.70;;;9.43;;
32485;SDS011;18935;52.236;21.134;2022-08-03T01:51:10;18.17;;;9.85;;
32485;SDS011;18935;52.236;21.134;2022-08-03T01:53:36;17.80;;;10.15;;
32485;SDS011;18935;52.236;21.134;2022-08-03T01:56:06;11.10;;;8.88;;
32485;SDS011;18935;52.236;21.134;2022-08-03T01:58:35;14.18;;;9.93;;
32485;SDS011;18935;52.236;21.134;2022-08-03T02:01:02;13.65;;;9.70;;
32485;SDS011;18935;52.236;21.134;2022-08-03T02:03:29;11.30;;;9.55;;
32485;SDS011;18935;52.236;21.134;2022-08-03T02:05:57;11.07;;;9.77;;
32485;SDS011;18935;52.236;21.134;2022-08-03T02:08:25;11.32;;;9.70;;
32485;SDS011;18935;52.236;21.134;2022-08-03T02:10:52;13.05;;;9.88;;
32485;SDS011;18935;52.236;21.134;2022-08-03T02:13:21;14.18;;;9.40;;
32485;SDS011;18935;52.236;21.134;2022-08-03T02:15:50;14.68;;;9.77;;
32485;SDS011;18935;52.236;21.134;2022-08-03T02:18:17;15.48;;;9.63;;
32485;SDS011;18935;52.236;21.134;2022-08-03T02:20:44;19.65;;;10.20;;
32485;SDS011;18935;52.236;21.134;2022-08-03T02:23:11;14.00;;;9.38;;
32485;SDS011;18935;52.236;21.134;2022-08-03T02:25:40;14.20;;;9.98;;
32485;SDS011;18935;52.236;21.134;2022-08-03T02:30:41;13.48;;;8.85;;
32485;SDS011;18935;52.236;21.134;2022-08-03T02:33:19;11.73;;;9.45;;
32485;SDS011;18935;52.236;21.134;2022-08-03T02:35:50;12.55;;;9.32;;
32485;SDS011;18935;52.236;21.134;2022-08-03T02:38:17;11.30;;;9.32;;
32485;SDS011;18935;52.236;21.134;2022-08-03T02:40:45;16.85;;;10.05;;
32485;SDS011;18935;52.236;21.134;2022-08-03T02:43:11;13.93;;;10.35;;
32485;SDS011;18935;52.236;21.134;2022-08-03T02:45:42;11.88;;;9.55;;
32485;SDS011;18935;52.236;21.134;2022-08-03T02:48:10;12.67;;;10.50;;
32485;SDS011;18935;52.236;21.134;2022-08-03T02:50:39;12.80;;;10.23;;
32485;SDS011;18935;52.236;21.134;2022-08-03T02:53:08;12.32;;;9.80;;
32485;SDS011;18935;52.236;21.134;2022-08-03T02:55:35;13.60;;;10.68;;
32485;SDS011;18935;52.236;21.134;2022-08-03T02:58:02;13.18;;;10.30;;
32485;SDS011;18935;52.236;21.134;2022-08-03T03:00:30;18.65;;;10.48;;
32485;SDS011;18935;52.236;21.134;2022-08-03T03:02:57;16.45;;;11.05;;
32485;SDS011;18935;52.236;21.134;2022-08-03T03:05:23;16.75;;;10.55;;
32485;SDS011;18935;52.236;21.134;2022-08-03T03:07:49;12.85;;;10.32;;
32485;SDS011;18935;52.236;21.134;2022-08-03T03:10:15;16.17;;;10.85;;
32485;SDS011;18935;52.236;21.134;2022-08-03T03:12:40;11.48;;;10.27;;
32485;SDS011;18935;52.236;21.134;2022-08-03T03:15:10;20.73;;;10.95;;
32485;SDS011;18935;52.236;21.134;2022-08-03T03:17:35;18.90;;;11.15;;
32485;SDS011;18935;52.236;21.134;2022-08-03T03:20:01;18.55;;;10.80;;
32485;SDS011;18935;52.236;21.134;2022-08-03T03:22:28;14.45;;;10.73;;
32485;SDS011;18935;52.236;21.134;2022-08-03T03:24:57;13.95;;;10.40;;
32485;SDS011;18935;52.236;21.134;2022-08-03T03:27:23;23.83;;;15.63;;
32485;SDS011;18935;52.236;21.134;2022-08-03T03:29:48;20.42;;;13.18;;
32485;SDS011;18935;52.236;21.134;2022-08-03T03:32:14;20.55;;;14.80;;
32485;SDS011;18935;52.236;21.134;2022-08-03T03:34:39;15.52;;;13.15;;
32485;SDS011;18935;52.236;21.134;2022-08-03T03:37:06;19.85;;;12.95;;
32485;SDS011;18935;52.236;21.134;2022-08-03T03:39:32;18.70;;;12.45;;
32485;SDS011;18935;52.236;21.134;2022-08-03T03:41:58;22.77;;;11.77;;
32485;SDS011;18935;52.236;21.134;2022-08-03T03:44:27;15.32;;;12.23;;
32485;SDS011;18935;52.236;21.134;2022-08-03T03:46:54;19.15;;;13.18;;
32485;SDS011;18935;52.236;21.134;2022-08-03T03:49:21;20.42;;;13.73;;
32485;SDS011;18935;52.236;21.134;2022-08-03T03:51:46;22.73;;;14.40;;
32485;SDS011;18935;52.236;21.134;2022-08-03T03:54:12;26.20;;;15.45;;
32485;SDS011;18935;52.236;21.134;2022-08-03T03:56:37;21.90;;;14.27;;
32485;SDS011;18935;52.236;21.134;2022-08-03T03:59:02;27.00;;;15.55;;
32485;SDS011;18935;52.236;21.134;2022-08-03T04:01:27;21.23;;;15.93;;
32485;SDS011;18935;52.236;21.134;2022-08-03T04:03:53;20.40;;;15.07;;
32485;SDS011;18935;52.236;21.134;2022-08-03T04:06:19;26.45;;;14.98;;
32485;SDS011;18935;52.236;21.134;2022-08-03T04:09:03;32.80;;;15.90;;
32485;SDS011;18935;52.236;21.134;2022-08-03T04:11:49;22.35;;;16.23;;
32485;SDS011;18935;52.236;21.134;2022-08-03T04:14:18;25.67;;;16.55;;
32485;SDS011;18935;52.236;21.134;2022-08-03T04:17:06;28.05;;;16.27;;
32485;SDS011;18935;52.236;21.134;2022-08-03T04:19:34;25.80;;;16.35;;
32485;SDS011;18935;52.236;21.134;2022-08-03T04:22:03;24.70;;;16.38;;
32485;SDS011;18935;52.236;21.134;2022-08-03T04:24:34;34.60;;;17.93;;
32485;SDS011;18935;52.236;21.134;2022-08-03T04:27:04;24.45;;;16.52;;
32485;SDS011;18935;52.236;21.134;2022-08-03T04:29:32;20.90;;;16.63;;
32485;SDS011;18935;52.236;21.134;2022-08-03T04:31:59;25.90;;;16.50;;
32485;SDS011;18935;52.236;21.134;2022-08-03T04:34:26;23.70;;;16.58;;
32485;SDS011;18935;52.236;21.134;2022-08-03T04:36:52;23.73;;;16.30;;
32485;SDS011;18935;52.236;21.134;2022-08-03T04:39:23;23.15;;;17.73;;
32485;SDS011;18935;52.236;21.134;2022-08-03T04:41:52;19.90;;;16.90;;
32485;SDS011;18935;52.236;21.134;2022-08-03T04:44:20;21.48;;;17.00;;
32485;SDS011;18935;52.236;21.134;2022-08-03T04:46:47;22.13;;;16.73;;
32485;SDS011;18935;52.236;21.134;2022-08-03T04:49:15;22.13;;;17.35;;
32485;SDS011;18935;52.236;21.134;2022-08-03T04:51:43;27.90;;;17.67;;
32485;SDS011;18935;52.236;21.134;2022-08-03T04:54:13;24.05;;;17.45;;
32485;SDS011;18935;52.236;21.134;2022-08-03T04:56:40;28.25;;;19.63;;
32485;SDS011;18935;52.236;21.134;2022-08-03T04:59:05;27.88;;;21.13;;
32485;SDS011;18935;52.236;21.134;2022-08-03T05:01:31;24.35;;;20.75;;
32485;SDS011;18935;52.236;21.134;2022-08-03T05:03:56;23.10;;;19.75;;
32485;SDS011;18935;52.236;21.134;2022-08-03T05:06:22;23.00;;;20.35;;
32485;SDS011;18935;52.236;21.134;2022-08-03T05:08:47;24.30;;;19.37;;
32485;SDS011;18935;52.236;21.134;2022-08-03T05:11:13;21.73;;;18.60;;
32485;SDS011;18935;52.236;21.134;2022-08-03T05:13:39;20.83;;;16.40;;
32485;SDS011;18935;52.236;21.134;2022-08-03T05:16:06;21.40;;;16.08;;
32485;SDS011;18935;52.236;21.134;2022-08-03T05:18:31;23.70;;;15.57;;
32485;SDS011;18935;52.236;21.134;2022-08-03T05:20:56;19.65;;;14.98;;
32485;SDS011;18935;52.236;21.134;2022-08-03T05:23:21;19.50;;;16.30;;
32485;SDS011;18935;52.236;21.134;2022-08-03T05:25:47;25.80;;;16.77;;
32485;SDS011;18935;52.236;21.134;2022-08-03T05:28:14;19.17;;;15.43;;
32485;SDS011;18935;52.236;21.134;2022-08-03T05:30:39;21.42;;;17.90;;
32485;SDS011;18935;52.236;21.134;2022-08-03T05:33:04;26.30;;;18.80;;
32485;SDS011;18935;52.236;21.134;2022-08-03T05:35:30;22.20;;;16.98;;
32485;SDS011;18935;52.236;21.134;2022-08-03T05:37:56;23.08;;;18.00;;
32485;SDS011;18935;52.236;21.134;2022-08-03T05:40:22;26.27;;;18.27;;
32485;SDS011;18935;52.236;21.134;2022-08-03T05:42:47;24.70;;;18.25;;
32485;SDS011;18935;52.236;21.134;2022-08-03T05:45:13;21.35;;;17.20;;
32485;SDS011;18935;52.236;21.134;2022-08-03T05:47:39;22.60;;;17.90;;
32485;SDS011;18935;52.236;21.134;2022-08-03T05:50:05;21.50;;;17.27;;
32485;SDS011;18935;52.236;21.134;2022-08-03T05:52:31;28.35;;;19.52;;
32485;SDS011;18935;52.236;21.134;2022-08-03T05:54:57;27.70;;;17.80;;
32485;SDS011;18935;52.236;21.134;2022-08-03T05:57:23;23.20;;;18.03;;
32485;SDS011;18935;52.236;21.134;2022-08-03T05:59:49;28.15;;;18.25;;
32485;SDS011;18935;52.236;21.134;2022-08-03T06:02:16;20.90;;;18.35;;
32485;SDS011;18935;52.236;21.134;2022-08-03T06:04:41;23.90;;;19.73;;
32485;SDS011;18935;52.236;21.134;2022-08-03T06:07:09;27.77;;;20.00;;
32485;SDS011;18935;52.236;21.134;2022-08-03T06:09:35;26.67;;;19.27;;
32485;SDS011;18935;52.236;21.134;2022-08-03T06:12:01;26.13;;;20.60;;
32485;SDS011;18935;52.236;21.134;2022-08-03T06:14:29;27.67;;;20.75;;
32485;SDS011;18935;52.236;21.134;2022-08-03T06:16:55;29.60;;;21.20;;
32485;SDS011;18935;52.236;21.134;2022-08-03T06:19:20;29.20;;;20.63;;
32485;SDS011;18935;52.236;21.134;2022-08-03T06:21:47;25.00;;;19.63;;
32485;SDS011;18935;52.236;21.134;2022-08-03T06:24:12;24.17;;;20.13;;
32485;SDS011;18935;52.236;21.134;2022-08-03T06:26:38;23.45;;;18.52;;
32485;SDS011;18935;52.236;21.134;2022-08-03T06:29:04;23.10;;;18.05;;
32485;SDS011;18935;52.236;21.134;2022-08-03T06:31:32;22.10;;;16.80;;
32485;SDS011;18935;52.236;21.134;2022-08-03T06:34:06;22.35;;;16.95;;
32485;SDS011;18935;52.236;21.134;2022-08-03T06:36:31;29.30;;;16.93;;
32485;SDS011;18935;52.236;21.134;2022-08-03T06:38:57;25.15;;;16.60;;
32485;SDS011;18935;52.236;21.134;2022-08-03T06:41:23;23.75;;;15.77;;
32485;SDS011;18935;52.236;21.134;2022-08-03T06:43:49;22.85;;;15.57;;
32485;SDS011;18935;52.236;21.134;2022-08-03T06:46:15;25.25;;;16.08;;
32485;SDS011;18935;52.236;21.134;2022-08-03T06:48:43;21.75;;;15.70;;
32485;SDS011;18935;52.236;21.134;2022-08-03T06:51:08;22.02;;;16.30;;
32485;SDS011;18935;52.236;21.134;2022-08-03T06:53:34;22.58;;;15.77;;
32485;SDS011;18935;52.236;21.134;2022-08-03T06:55:59;23.25;;;15.73;;
32485;SDS011;18935;52.236;21.134;2022-08-03T06:58:25;24.02;;;17.00;;
32485;SDS011;18935;52.236;21.134;2022-08-03T07:00:50;20.77;;;16.40;;
32485;SDS011;18935;52.236;21.134;2022-08-03T07:03:16;30.38;;;17.17;;
32485;SDS011;18935;52.236;21.134;2022-08-03T07:05:43;25.65;;;17.58;;
32485;SDS011;18935;52.236;21.134;2022-08-03T07:08:11;24.02;;;18.08;;
32485;SDS011;18935;52.236;21.134;2022-08-03T07:10:36;23.52;;;16.75;;
32485;SDS011;18935;52.236;21.134;2022-08-03T07:13:02;23.63;;;17.20;;
32485;SDS011;18935;52.236;21.134;2022-08-03T07:15:28;22.73;;;17.30;;
32485;SDS011;18935;52.236;21.134;2022-08-03T07:17:53;21.40;;;17.63;;
32485;SDS011;18935;52.236;21.134;2022-08-03T07:20:18;21.63;;;18.33;;
32485;SDS011;18935;52.236;21.134;2022-08-03T07:22:45;24.20;;;18.02;;
32485;SDS011;18935;52.236;21.134;2022-08-03T07:25:10;23.55;;;17.65;;
32485;SDS011;18935;52.236;21.134;2022-08-03T07:27:36;24.30;;;18.23;;
32485;SDS011;18935;52.236;21.134;2022-08-03T07:30:04;23.38;;;18.30;;
32485;SDS011;18935;52.236;21.134;2022-08-03T07:32:30;21.00;;;17.60;;
32485;SDS011;18935;52.236;21.134;2022-08-03T07:34:56;25.77;;;19.40;;
32485;SDS011;18935;52.236;21.134;2022-08-03T07:37:21;25.92;;;19.10;;
32485;SDS011;18935;52.236;21.134;2022-08-03T07:39:46;22.27;;;18.30;;
32485;SDS011;18935;52.236;21.134;2022-08-03T07:42:12;30.90;;;19.77;;
32485;SDS011;18935;52.236;21.134;2022-08-03T07:44:37;24.70;;;18.85;;
32485;SDS011;18935;52.236;21.134;2022-08-03T07:47:03;28.52;;;19.88;;
32485;SDS011;18935;52.236;21.134;2022-08-03T07:49:28;26.10;;;19.75;;
32485;SDS011;18935;52.236;21.134;2022-08-03T07:51:54;26.98;;;18.90;;
32485;SDS011;18935;52.236;21.134;2022-08-03T07:54:38;30.73;;;19.75;;
32485;SDS011;18935;52.236;21.134;2022-08-03T07:57:03;39.67;;;19.30;;
32485;SDS011;18935;52.236;21.134;2022-08-03T07:59:28;28.70;;;18.47;;
32485;SDS011;18935;52.236;21.134;2022-08-03T08:01:54;33.33;;;18.70;;
32485;SDS011;18935;52.236;21.134;2022-08-03T08:04:20;28.38;;;19.83;;
32485;SDS011;18935;52.236;21.134;2022-08-03T08:06:52;25.17;;;18.92;;
32485;SDS011;18935;52.236;21.134;2022-08-03T08:09:17;26.07;;;19.73;;
32485;SDS011;18935;52.236;21.134;2022-08-03T08:11:46;33.73;;;18.40;;
32485;SDS011;18935;52.236;21.134;2022-08-03T08:14:17;25.67;;;18.13;;
32485;SDS011;18935;52.236;21.134;2022-08-03T08:16:43;28.10;;;18.70;;
32485;SDS011;18935;52.236;21.134;2022-08-03T08:19:08;30.87;;;18.97;;
32485;SDS011;18935;52.236;21.134;2022-08-03T08:21:33;27.03;;;17.37;;
32485;SDS011;18935;52.236;21.134;2022-08-03T08:23:58;29.87;;;17.93;;
32485;SDS011;18935;52.236;21.134;2022-08-03T08:26:24;25.88;;;15.73;;
32485;SDS011;18935;52.236;21.134;2022-08-03T08:28:49;23.05;;;16.25;;
32485;SDS011;18935;52.236;21.134;2022-08-03T08:31:16;25.35;;;14.50;;
32485;SDS011;18935;52.236;21.134;2022-08-03T08:33:41;22.52;;;13.10;;
32485;SDS011;18935;52.236;21.134;2022-08-03T08:36:06;23.33;;;14.80;;
32485;SDS011;18935;52.236;21.134;2022-08-03T08:38:33;19.73;;;13.33;;
32485;SDS011;18935;52.236;21.134;2022-08-03T08:40:59;17.85;;;13.90;;
32485;SDS011;18935;52.236;21.134;2022-08-03T08:43:24;22.92;;;13.50;;
32485;SDS011;18935;52.236;21.134;2022-08-03T08:45:51;18.97;;;13.73;;
32485;SDS011;18935;52.236;21.134;2022-08-03T08:48:22;20.27;;;12.13;;
32485;SDS011;18935;52.236;21.134;2022-08-03T08:50:58;19.83;;;11.13;;
32485;SDS011;18935;52.236;21.134;2022-08-03T08:53:25;18.15;;;9.93;;
32485;SDS011;18935;52.236;21.134;2022-08-03T08:55:52;17.38;;;9.77;;
32485;SDS011;18935;52.236;21.134;2022-08-03T08:58:22;16.95;;;9.55;;
32485;SDS011;18935;52.236;21.134;2022-08-03T09:00:50;13.20;;;8.48;;
32485;SDS011;18935;52.236;21.134;2022-08-03T09:03:15;14.75;;;7.00;;
32485;SDS011;18935;52.236;21.134;2022-08-03T09:05:42;14.80;;;7.25;;
32485;SDS011;18935;52.236;21.134;2022-08-03T09:08:07;17.02;;;7.28;;
32485;SDS011;18935;52.236;21.134;2022-08-03T09:10:33;21.52;;;8.82;;
32485;SDS011;18935;52.236;21.134;2022-08-03T09:12:59;18.25;;;8.20;;
32485;SDS011;18935;52.236;21.134;2022-08-03T09:15:25;18.23;;;7.22;;
32485;SDS011;18935;52.236;21.134;2022-08-03T09:17:52;24.48;;;7.03;;
32485;SDS011;18935;52.236;21.134;2022-08-03T09:20:20;12.85;;;6.28;;
32485;SDS011;18935;52.236;21.134;2022-08-03T09:25:34;9.68;;;5.40;;
32485;SDS011;18935;52.236;21.134;2022-08-03T09:28:05;12.90;;;5.18;;
32485;SDS011;18935;52.236;21.134;2022-08-03T09:30:30;11.20;;;5.07;;
32485;SDS011;18935;52.236;21.134;2022-08-03T09:33:02;15.63;;;5.03;;
32485;SDS011;18935;52.236;21.134;2022-08-03T09:35:29;13.45;;;5.00;;
32485;SDS011;18935;52.236;21.134;2022-08-03T09:40:52;16.15;;;4.70;;
32485;SDS011;18935;52.236;21.134;2022-08-03T09:43:19;10.65;;;4.85;;
32485;SDS011;18935;52.236;21.134;2022-08-03T09:45:44;22.65;;;5.25;;
32485;SDS011;18935;52.236;21.134;2022-08-03T09:48:23;13.70;;;5.03;;
32485;SDS011;18935;52.236;21.134;2022-08-03T09:50:49;11.75;;;4.78;;
32485;SDS011;18935;52.236;21.134;2022-08-03T09:53:18;12.18;;;5.25;;
32485;SDS011;18935;52.236;21.134;2022-08-03T09:55:53;11.13;;;4.90;;
32485;SDS011;18935;52.236;21.134;2022-08-03T09:58:20;10.15;;;4.80;;
32485;SDS011;18935;52.236;21.134;2022-08-03T10:03:26;6.95;;;4.47;;
32485;SDS011;18935;52.236;21.134;2022-08-03T10:05:52;6.63;;;4.43;;
32485;SDS011;18935;52.236;21.134;2022-08-03T10:08:18;8.02;;;4.65;;
32485;SDS011;18935;52.236;21.134;2022-08-03T10:10:45;12.70;;;4.80;;
32485;SDS011;18935;52.236;21.134;2022-08-03T10:13:13;11.57;;;5.17;;
32485;SDS011;18935;52.236;21.134;2022-08-03T10:15:40;8.80;;;4.38;;
32485;SDS011;18935;52.236;21.134;2022-08-03T10:18:05;10.00;;;4.55;;
32485;SDS011;18935;52.236;21.134;2022-08-03T10:20:36;8.35;;;4.90;;
32485;SDS011;18935;52.236;21.134;2022-08-03T10:23:05;14.02;;;5.10;;
32485;SDS011;18935;52.236;21.134;2022-08-03T10:25:32;7.85;;;4.60;;
32485;SDS011;18935;52.236;21.134;2022-08-03T10:27:58;8.98;;;4.95;;
32485;SDS011;18935;52.236;21.134;2022-08-03T10:30:28;7.97;;;5.10;;
32485;SDS011;18935;52.236;21.134;2022-08-03T10:32:58;12.80;;;5.30;;
32485;SDS011;18935;52.236;21.134;2022-08-03T10:37:51;12.88;;;5.70;;
32485;SDS011;18935;52.236;21.134;2022-08-03T10:40:23;13.25;;;5.13;;
32485;SDS011;18935;52.236;21.134;2022-08-03T10:42:55;11.38;;;5.53;;
32485;SDS011;18935;52.236;21.134;2022-08-03T10:45:27;13.80;;;5.60;;
32485;SDS011;18935;52.236;21.134;2022-08-03T10:47:55;18.65;;;5.93;;
32485;SDS011;18935;52.236;21.134;2022-08-03T10:50:24;13.73;;;5.30;;
32485;SDS011;18935;52.236;21.134;2022-08-03T10:53:00;17.95;;;5.75;;
32485;SDS011;18935;52.236;21.134;2022-08-03T11:01:01;14.57;;;5.80;;
32485;SDS011;18935;52.236;21.134;2022-08-03T11:03:34;15.63;;;5.45;;
32485;SDS011;18935;52.236;21.134;2022-08-03T11:06:19;10.88;;;4.85;;
32485;SDS011;18935;52.236;21.134;2022-08-03T11:09:14;8.15;;;5.18;;
32485;SDS011;18935;52.236;21.134;2022-08-03T11:11:38;7.47;;;5.13;;
32485;SDS011;18935;52.236;21.134;2022-08-03T11:14:11;9.23;;;5.28;;
32485;SDS011;18935;52.236;21.134;2022-08-03T11:16:39;12.50;;;5.35;;
32485;SDS011;18935;52.236;21.134;2022-08-03T11:19:07;13.82;;;5.30;;
32485;SDS011;18935;52.236;21.134;2022-08-03T11:24:49;11.65;;;5.65;;
32485;SDS011;18935;52.236;21.134;2022-08-03T11:27:16;7.20;;;5.07;;
32485;SDS011;18935;52.236;21.134;2022-08-03T11:35:23;10.52;;;5.57;;
32485;SDS011;18935;52.236;21.134;2022-08-03T11:43:05;9.15;;;5.53;;
32485;SDS011;18935;52.236;21.134;2022-08-03T11:48:27;7.85;;;4.82;;
32485;SDS011;18935;52.236;21.134;2022-08-03T11:50:57;7.70;;;4.90;;
32485;SDS011;18935;52.236;21.134;2022-08-03T11:53:23;9.50;;;4.95;;
32485;SDS011;18935;52.236;21.134;2022-08-03T11:55:48;8.20;;;5.00;;
32485;SDS011;18935;52.236;21.134;2022-08-03T11:58:15;9.05;;;4.80;;
32485;SDS011;18935;52.236;21.134;2022-08-03T12:00:41;7.65;;;5.10;;
32485;SDS011;18935;52.236;21.134;2022-08-03T12:03:11;10.53;;;5.23;;
32485;SDS011;18935;52.236;21.134;2022-08-03T12:05:40;7.63;;;5.35;;
32485;SDS011;18935;52.236;21.134;2022-08-03T12:08:20;7.57;;;5.05;;
32485;SDS011;18935;52.236;21.134;2022-08-03T12:10:57;7.05;;;4.47;;
32485;SDS011;18935;52.236;21.134;2022-08-03T12:13:24;7.00;;;4.88;;
32485;SDS011;18935;52.236;21.134;2022-08-03T12:15:55;6.45;;;4.93;;
32485;SDS011;18935;52.236;21.134;2022-08-03T12:18:23;10.75;;;5.13;;
32485;SDS011;18935;52.236;21.134;2022-08-03T12:20:49;6.90;;;4.70;;
32485;SDS011;18935;52.236;21.134;2022-08-03T12:23:16;7.43;;;4.72;;
32485;SDS011;18935;52.236;21.134;2022-08-03T12:25:43;8.93;;;4.55;;
32485;SDS011;18935;52.236;21.134;2022-08-03T12:28:12;7.70;;;4.15;;
32485;SDS011;18935;52.236;21.134;2022-08-03T12:30:38;7.32;;;4.47;;
32485;SDS011;18935;52.236;21.134;2022-08-03T12:33:14;8.05;;;4.40;;
32485;SDS011;18935;52.236;21.134;2022-08-03T12:35:40;7.80;;;4.35;;
32485;SDS011;18935;52.236;21.134;2022-08-03T12:38:06;9.13;;;4.90;;
32485;SDS011;18935;52.236;21.134;2022-08-03T12:40:31;8.38;;;5.15;;
32485;SDS011;18935;52.236;21.134;2022-08-03T12:42:57;7.72;;;4.07;;
32485;SDS011;18935;52.236;21.134;2022-08-03T12:45:26;9.38;;;4.20;;
32485;SDS011;18935;52.236;21.134;2022-08-03T12:47:53;10.35;;;5.05;;
32485;SDS011;18935;52.236;21.134;2022-08-03T12:50:23;8.25;;;4.38;;
32485;SDS011;18935;52.236;21.134;2022-08-03T12:52:54;4.90;;;4.10;;
32485;SDS011;18935;52.236;21.134;2022-08-03T12:55:23;7.18;;;4.30;;
32485;SDS011;18935;52.236;21.134;2022-08-03T12:57:51;7.55;;;4.65;;
32485;SDS011;18935;52.236;21.134;2022-08-03T13:00:17;9.38;;;4.55;;
32485;SDS011;18935;52.236;21.134;2022-08-03T13:02:43;8.68;;;4.63;;
32485;SDS011;18935;52.236;21.134;2022-08-03T13:05:10;10.85;;;4.60;;
32485;SDS011;18935;52.236;21.134;2022-08-03T13:07:40;6.47;;;4.30;;
32485;SDS011;18935;52.236;21.134;2022-08-03T13:10:07;12.25;;;4.80;;
32485;SDS011;18935;52.236;21.134;2022-08-03T13:12:32;5.28;;;4.50;;
32485;SDS011;18935;52.236;21.134;2022-08-03T13:15:10;5.35;;;4.43;;
32485;SDS011;18935;52.236;21.134;2022-08-03T13:17:36;9.10;;;4.73;;
32485;SDS011;18935;52.236;21.134;2022-08-03T13:20:01;11.67;;;4.70;;
32485;SDS011;18935;52.236;21.134;2022-08-03T13:22:27;7.25;;;4.20;;
32485;SDS011;18935;52.236;21.134;2022-08-03T13:24:56;8.57;;;4.22;;
32485;SDS011;18935;52.236;21.134;2022-08-03T13:27:22;9.93;;;4.65;;
32485;SDS011;18935;52.236;21.134;2022-08-03T13:29:48;5.07;;;4.10;;
32485;SDS011;18935;52.236;21.134;2022-08-03T13:32:14;8.05;;;4.50;;
32485;SDS011;18935;52.236;21.134;2022-08-03T13:34:39;5.45;;;4.65;;
32485;SDS011;18935;52.236;21.134;2022-08-03T13:37:05;5.82;;;4.15;;
32485;SDS011;18935;52.236;21.134;2022-08-03T13:39:30;7.73;;;4.77;;
32485;SDS011;18935;52.236;21.134;2022-08-03T13:41:55;6.85;;;4.90;;
32485;SDS011;18935;52.236;21.134;2022-08-03T13:44:21;6.40;;;4.32;;
32485;SDS011;18935;52.236;21.134;2022-08-03T13:46:46;6.72;;;4.88;;
32485;SDS011;18935;52.236;21.134;2022-08-03T13:49:12;9.75;;;4.47;;
32485;SDS011;18935;52.236;21.134;2022-08-03T13:51:37;11.05;;;5.18;;
32485;SDS011;18935;52.236;21.134;2022-08-03T13:54:03;12.70;;;5.30;;
32485;SDS011;18935;52.236;21.134;2022-08-03T13:56:29;9.40;;;4.80;;
32485;SDS011;18935;52.236;21.134;2022-08-03T13:58:55;7.20;;;5.07;;
32485;SDS011;18935;52.236;21.134;2022-08-03T14:01:21;9.30;;;5.20;;
32485;SDS011;18935;52.236;21.134;2022-08-03T14:03:46;6.63;;;4.88;;
32485;SDS011;18935;52.236;21.134;2022-08-03T14:06:31;7.88;;;4.75;;
32485;SDS011;18935;52.236;21.134;2022-08-03T14:08:57;9.48;;;4.95;;
32485;SDS011;18935;52.236;21.134;2022-08-03T14:11:22;8.30;;;4.93;;
32485;SDS011;18935;52.236;21.134;2022-08-03T14:13:47;7.63;;;4.40;;
32485;SDS011;18935;52.236;21.134;2022-08-03T14:16:13;10.57;;;5.07;;
32485;SDS011;18935;52.236;21.134;2022-08-03T14:18:38;9.50;;;5.60;;
32485;SDS011;18935;52.236;21.134;2022-08-03T14:21:04;7.60;;;5.57;;
32485;SDS011;18935;52.236;21.134;2022-08-03T14:23:30;11.80;;;6.43;;
32485;SDS011;18935;52.236;21.134;2022-08-03T14:25:56;8.35;;;5.00;;
32485;SDS011;18935;52.236;21.134;2022-08-03T14:28:21;9.07;;;5.53;;
32485;SDS011;18935;52.236;21.134;2022-08-03T14:30:47;9.55;;;5.50;;
32485;SDS011;18935;52.236;21.134;2022-08-03T14:33:13;6.50;;;5.07;;
32485;SDS011;18935;52.236;21.134;2022-08-03T14:35:39;8.77;;;5.20;;
32485;SDS011;18935;52.236;21.134;2022-08-03T14:38:04;10.30;;;4.90;;
32485;SDS011;18935;52.236;21.134;2022-08-03T14:40:30;9.97;;;6.43;;
32485;SDS011;18935;52.236;21.134;2022-08-03T14:42:55;16.40;;;5.90;;
32485;SDS011;18935;52.236;21.134;2022-08-03T14:45:21;10.77;;;5.55;;
32485;SDS011;18935;52.236;21.134;2022-08-03T14:47:46;12.35;;;5.57;;
32485;SDS011;18935;52.236;21.134;2022-08-03T14:50:11;7.70;;;5.23;;
32485;SDS011;18935;52.236;21.134;2022-08-03T14:52:37;11.77;;;5.87;;
32485;SDS011;18935;52.236;21.134;2022-08-03T14:55:02;14.20;;;7.27;;
32485;SDS011;18935;52.236;21.134;2022-08-03T14:57:27;6.88;;;5.03;;
32485;SDS011;18935;52.236;21.134;2022-08-03T14:59:53;7.95;;;5.47;;
32485;SDS011;18935;52.236;21.134;2022-08-03T15:02:18;9.25;;;5.63;;
32485;SDS011;18935;52.236;21.134;2022-08-03T15:04:43;11.80;;;5.97;;